createdAt,value
2023-03-08T00:02:15.489Z,96404.97
2023-03-08T00:04:48.214Z,96402.47
2023-03-08T00:07:19.260Z,96409.94
2023-03-08T00:09:50.015Z,96406.00
2023-03-08T00:12:20.297Z,96408.50
2023-03-08T00:14:52.808Z,96406.13
2023-03-08T00:17:22.244Z,96407.16
2023-03-08T00:20:00.379Z,96401.03
2023-03-08T00:22:28.861Z,96409.75
2023-03-08T00:24:59.343Z,96403.72
2023-03-08T00:27:27.982Z,96398.44
2023-03-08T00:29:56.773Z,96403.22
2023-03-08T00:32:33.694Z,96410.16
2023-03-08T00:35:00.756Z,96414.31
2023-03-08T00:37:36.133Z,96396.56
2023-03-08T00:40:03.982Z,96401.44
2023-03-08T00:42:45.330Z,96399.69
2023-03-08T00:45:17.923Z,96399.69
2023-03-08T00:47:45.721Z,96400.38
2023-03-08T00:50:13.692Z,96395.84
2023-03-08T00:52:40.664Z,96398.13
2023-03-08T00:55:08.132Z,96398.22
2023-03-08T00:57:35.652Z,96397.69
2023-03-08T01:00:03.419Z,96390.63
2023-03-08T01:02:31.343Z,96397.88
2023-03-08T01:05:01.895Z,96398.31
2023-03-08T01:07:28.692Z,96400.28
2023-03-08T01:09:56.634Z,96394.34
2023-03-08T01:12:25.479Z,96398.31
2023-03-08T01:14:53.793Z,96383.38
2023-03-08T01:17:21.167Z,96400.16
2023-03-08T01:19:48.113Z,96406.72
2023-03-08T01:22:15.534Z,96405.97
2023-03-08T01:24:47.521Z,96401.84
2023-03-08T01:27:16.514Z,96392.31
2023-03-08T01:29:44.994Z,96396.44
2023-03-08T01:32:12.282Z,96396.88
2023-03-08T01:34:41.424Z,96402.69
2023-03-08T01:37:08.381Z,96397.06
2023-03-08T01:39:42.114Z,96391.06
2023-03-08T01:42:09.964Z,96400.38
2023-03-08T01:45:32.327Z,96392.59
2023-03-08T01:48:03.343Z,96391.22
2023-03-08T01:50:34.775Z,96393.09
2023-03-08T01:53:28.829Z,96388.31
2023-03-08T01:55:57.175Z,96380.72
2023-03-08T01:58:31.165Z,96366.81
2023-03-08T02:01:03.279Z,96392.41
2023-03-08T02:03:31.795Z,96390.19
2023-03-08T02:06:00.148Z,96388.69
2023-03-08T02:09:48.298Z,96382.41
2023-03-08T02:11:42.915Z,96398.78
2023-03-08T02:14:46.505Z,96400.94
2023-03-08T02:17:18.181Z,96400.28
2023-03-08T02:20:28.988Z,96403.19
2023-03-08T02:23:17.639Z,96397.47
2023-03-08T02:26:06.607Z,96392.59
2023-03-08T02:28:38.111Z,96394.16
2023-03-08T02:31:10.278Z,96389.25
2023-03-08T02:33:58.354Z,96397.13
2023-03-08T02:36:30.021Z,96385.13
2023-03-08T02:39:08.948Z,96396.59
2023-03-08T02:42:12.487Z,96397.38
2023-03-08T02:44:41.569Z,96388.41
2023-03-08T02:47:10.781Z,96379.78
2023-03-08T02:49:42.335Z,96406.22
2023-03-08T02:52:13.151Z,96398.81
2023-03-08T02:55:07.345Z,96375.78
2023-03-08T02:57:51.639Z,96401.22
2023-03-08T03:00:22.313Z,96406.22
2023-03-08T03:02:53.783Z,96411.50
2023-03-08T03:05:36.202Z,96405.91
2023-03-08T03:08:08.036Z,96406.31
2023-03-08T03:10:50.874Z,96411.56
2023-03-08T03:13:28.243Z,96405.03
2023-03-08T03:16:41.896Z,96417.81
2023-03-08T03:18:48.475Z,96418.81
2023-03-08T03:25:01.454Z,96415.47
2023-03-08T03:27:48.846Z,96391.50
2023-03-08T03:30:50.140Z,96420.03
2023-03-08T03:34:05.509Z,96426.66
2023-03-08T03:39:18.880Z,96429.34
2023-03-08T03:41:57.176Z,96419.56
2023-03-08T03:44:31.167Z,96436.59
2023-03-08T03:47:10.343Z,96434.91
2023-03-08T03:49:37.441Z,96441.13
2023-03-08T03:52:05.018Z,96433.91
2023-03-08T03:54:32.426Z,96445.06
2023-03-08T03:57:06.178Z,96447.78
2023-03-08T03:59:34.968Z,96448.59
2023-03-08T04:05:36.579Z,96450.09
2023-03-08T04:09:15.925Z,96461.75
2023-03-08T04:15:18.692Z,96446.59
2023-03-08T04:18:15.225Z,96451.56
2023-03-08T04:20:42.208Z,96451.03
2023-03-08T04:23:08.967Z,96451.88
2023-03-08T04:25:36.017Z,96449.38
2023-03-08T04:28:03.828Z,96454.16
2023-03-08T04:30:35.949Z,96451.75
2023-03-08T04:33:03.175Z,96450.28
2023-03-08T04:38:20.642Z,96444.28
2023-03-08T04:41:10.726Z,96448.28
2023-03-08T04:43:39.714Z,96445.69
2023-03-08T04:46:08.053Z,96451.38
2023-03-08T04:48:35.372Z,96451.38
2023-03-08T04:51:05.015Z,96457.84
2023-03-08T04:53:38.628Z,96448.25
2023-03-08T04:56:06.668Z,96448.03
2023-03-08T04:58:34.125Z,96446.94
2023-03-08T05:01:12.269Z,96445.25
2023-03-08T05:03:40.088Z,96441.78
2023-03-08T05:06:08.810Z,96452.13
2023-03-08T05:08:38.470Z,96451.72
2023-03-08T05:11:07.370Z,96458.81
2023-03-08T05:13:40.665Z,96446.44
2023-03-08T05:16:11.580Z,96458.63
2023-03-08T05:18:43.407Z,96448.28
2023-03-08T05:21:25.510Z,96448.13
2023-03-08T05:23:52.910Z,96451.28
2023-03-08T05:26:20.598Z,96455.31
2023-03-08T05:28:47.653Z,96443.81
2023-03-08T05:31:26.002Z,96461.03
2023-03-08T05:33:54.365Z,96445.03
2023-03-08T05:36:22.104Z,96463.75
2023-03-08T05:38:57.666Z,96450.03
2023-03-08T05:41:24.485Z,96465.50
2023-03-08T05:43:51.288Z,96463.75
2023-03-08T05:46:19.912Z,96462.41
2023-03-08T05:48:47.046Z,96461.47
2023-03-08T05:51:16.732Z,96469.25
2023-03-08T05:53:44.322Z,96476.31
2023-03-08T05:56:17.095Z,96483.72
2023-03-08T05:58:45.653Z,96485.59
2023-03-08T06:01:28.209Z,96486.72
2023-03-08T06:04:04.033Z,96494.81
2023-03-08T06:06:31.275Z,96490.25
2023-03-08T06:08:58.602Z,96494.09
2023-03-08T06:11:25.938Z,96500.81
2023-03-08T06:13:53.409Z,96504.19
2023-03-08T06:16:20.906Z,96508.84
2023-03-08T06:18:48.742Z,96505.66
2023-03-08T06:21:21.361Z,96510.50
2023-03-08T06:23:48.315Z,96509.50
2023-03-08T06:26:16.943Z,96515.72
2023-03-08T06:28:43.745Z,96512.22
2023-03-08T06:31:18.989Z,96518.59
2023-03-08T06:33:45.772Z,96520.66
2023-03-08T06:36:16.016Z,96524.59
2023-03-08T06:38:43.691Z,96530.09
2023-03-08T06:41:16.938Z,96531.84
2023-03-08T06:43:44.387Z,96526.38
2023-03-08T06:46:13.972Z,96530.75
2023-03-08T06:51:29.540Z,96534.31
2023-03-08T06:53:57.315Z,96534.34
2023-03-08T06:56:33.008Z,96545.38
2023-03-08T06:59:00.917Z,96538.97
2023-03-08T07:01:27.868Z,96549.47
2023-03-08T07:03:54.739Z,96547.22
2023-03-08T07:06:25.111Z,96548.97
2023-03-08T07:08:51.967Z,96543.59
2023-03-08T07:11:19.236Z,96549.13
2023-03-08T07:13:46.024Z,96558.81
2023-03-08T07:16:14.141Z,96560.09
2023-03-08T07:18:41.837Z,96565.00
2023-03-08T07:21:10.427Z,96550.44
2023-03-08T07:23:37.795Z,96552.59
2023-03-08T07:26:06.682Z,96549.09
2023-03-08T07:28:34.435Z,96544.41
2023-03-08T07:31:01.308Z,96552.22
2023-03-08T07:33:28.202Z,96563.91
2023-03-08T07:35:55.412Z,96570.72
2023-03-08T07:38:22.973Z,96564.09
2023-03-08T07:40:59.494Z,96569.94
2023-03-08T07:43:29.558Z,96565.94
2023-03-08T07:46:02.755Z,96568.00
2023-03-08T07:48:31.708Z,96556.22
2023-03-08T07:51:59.469Z,96560.41
2023-03-08T07:54:26.458Z,96562.06
2023-03-08T07:58:11.791Z,96558.34
2023-03-08T08:00:22.189Z,96558.66
2023-03-08T08:02:48.970Z,96553.78
2023-03-08T08:05:15.949Z,96549.13
2023-03-08T08:07:43.283Z,96542.19
2023-03-08T08:10:10.802Z,96549.88
2023-03-08T08:12:38.520Z,96543.53
2023-03-08T08:15:06.213Z,96548.38
2023-03-08T08:17:35.573Z,96535.38
2023-03-08T08:20:02.385Z,96541.00
2023-03-08T08:22:35.953Z,96528.88
2023-03-08T08:25:10.230Z,96539.44
2023-03-08T08:27:37.610Z,96535.41
2023-03-08T08:30:09.138Z,96535.81
2023-03-08T08:32:38.478Z,96533.31
2023-03-08T08:35:06.056Z,96540.75
2023-03-08T08:37:33.960Z,96542.91
2023-03-08T08:40:00.984Z,96538.44
2023-03-08T08:42:35.007Z,96532.38
2023-03-08T08:45:02.367Z,96535.59
2023-03-08T08:47:34.618Z,96534.19
2023-03-08T08:50:01.524Z,96537.03
2023-03-08T08:52:28.814Z,96535.03
2023-03-08T08:54:57.140Z,96535.47
2023-03-08T08:57:28.648Z,96536.13
2023-03-08T08:59:57.343Z,96536.69
2023-03-08T09:02:30.738Z,96534.09
2023-03-08T09:05:57.397Z,96531.72
2023-03-08T09:08:26.022Z,96529.75
2023-03-08T09:10:52.999Z,96526.97
2023-03-08T09:13:43.012Z,96529.06
2023-03-08T09:16:51.595Z,96528.34
2023-03-08T09:19:18.848Z,96528.59
2023-03-08T09:22:00.101Z,96525.13
2023-03-08T09:24:27.804Z,96528.41
2023-03-08T09:26:56.117Z,96522.41
2023-03-08T09:29:31.599Z,96530.00
2023-03-08T09:31:59.324Z,96514.47
2023-03-08T09:34:28.351Z,96521.22
2023-03-08T09:37:01.344Z,96514.44
2023-03-08T09:39:28.358Z,96511.78
2023-03-08T09:42:02.120Z,96510.16
2023-03-08T09:44:45.874Z,96499.81
2023-03-08T09:47:22.398Z,96499.63
2023-03-08T09:50:03.784Z,96496.97
2023-03-08T09:53:32.492Z,96486.50
2023-03-08T09:56:04.960Z,96494.16
2023-03-08T09:58:53.394Z,96493.06
2023-03-08T10:01:59.543Z,96497.00
2023-03-08T10:05:05.946Z,96493.75
2023-03-08T10:08:04.198Z,96502.28
2023-03-08T10:10:56.888Z,96496.84
2023-03-08T10:13:29.515Z,96496.69
2023-03-08T10:16:14.829Z,96491.72
2023-03-08T10:18:45.098Z,96482.75
2023-03-08T10:21:17.578Z,96495.84
2023-03-08T10:23:58.254Z,96496.28
2023-03-08T10:26:30.354Z,96489.53
2023-03-08T10:28:57.159Z,96486.47
2023-03-08T10:31:30.824Z,96482.59
2023-03-08T10:34:11.251Z,96486.47
2023-03-08T10:37:06.942Z,96479.72
2023-03-08T10:39:36.912Z,96475.91
2023-03-08T10:42:16.338Z,96473.59
2023-03-08T10:44:59.787Z,96475.44
2023-03-08T10:47:29.009Z,96469.53
2023-03-08T10:50:22.784Z,96469.88
2023-03-08T10:52:51.807Z,96463.16
2023-03-08T10:55:36.163Z,96466.28
2023-03-08T10:59:09.100Z,96475.72
2023-03-08T11:01:34.837Z,96476.19
2023-03-08T11:04:14.051Z,96467.47
2023-03-08T11:06:41.198Z,96455.81
2023-03-08T11:09:26.820Z,96455.91
2023-03-08T11:11:58.444Z,96465.72
2023-03-08T11:14:27.125Z,96458.41
2023-03-08T11:17:09.044Z,96451.28
2023-03-08T11:20:01.284Z,96459.81
2023-03-08T11:22:37.190Z,96451.03
2023-03-08T11:25:33.168Z,96440.59
2023-03-08T11:28:11.922Z,96440.22
2023-03-08T11:31:10.221Z,96444.16
2023-03-08T11:33:56.614Z,96423.94
2023-03-08T11:36:32.514Z,96430.47
2023-03-08T11:39:11.013Z,96423.34
2023-03-08T11:42:04.590Z,96416.97
2023-03-08T11:44:46.377Z,96413.91
2023-03-08T11:47:33.317Z,96407.75
2023-03-08T11:50:43.237Z,96413.22
2023-03-08T11:53:39.168Z,96403.47
2023-03-08T11:56:29.233Z,96408.59
2023-03-08T12:05:56.164Z,96400.84
2023-03-08T12:12:04.320Z,96387.13
2023-03-08T12:15:07.131Z,96390.41
2023-03-08T12:17:44.800Z,96389.16
2023-03-08T12:20:16.099Z,96389.53
2023-03-08T12:22:52.089Z,96389.53
2023-03-08T12:25:18.806Z,96389.75
2023-03-08T12:28:00.375Z,96388.06
2023-03-08T12:30:49.406Z,96382.50
2023-03-08T12:33:20.908Z,96381.31
2023-03-08T12:36:11.346Z,96382.94
2023-03-08T12:38:49.188Z,96383.63
2023-03-08T12:41:31.208Z,96375.66
2023-03-08T12:44:25.658Z,96377.91
2023-03-08T12:47:05.082Z,96383.84
2023-03-08T12:49:38.617Z,96390.41
2023-03-08T12:52:23.513Z,96386.69
2023-03-08T12:55:00.741Z,96384.88
2023-03-08T12:57:43.044Z,96376.06
2023-03-08T13:00:40.082Z,96378.09
2023-03-08T13:03:13.354Z,96368.28
2023-03-08T13:05:45.682Z,96367.44
2023-03-08T13:08:15.726Z,96370.31
2023-03-08T13:11:09.891Z,96369.06
2023-03-08T13:14:26.131Z,96374.72
2023-03-08T13:16:59.661Z,96370.78
2023-03-08T13:19:31.840Z,96371.97
2023-03-08T13:22:37.652Z,96364.06
2023-03-08T13:25:33.040Z,96366.81
2023-03-08T13:28:21.986Z,96368.84
2023-03-08T13:30:58.744Z,96369.06
2023-03-08T13:33:38.804Z,96363.75
2023-03-08T13:36:15.492Z,96364.19
2023-03-08T13:38:42.561Z,96363.16
2023-03-08T13:41:09.889Z,96366.84
2023-03-08T13:43:36.794Z,96359.47
2023-03-08T13:46:10.967Z,96360.09
2023-03-08T13:48:38.020Z,96356.81
2023-03-08T13:51:05.371Z,96361.72
2023-03-08T13:53:35.712Z,96360.91
2023-03-08T13:56:07.393Z,96356.19
2023-03-08T13:58:36.777Z,96351.09
2023-03-08T14:01:19.608Z,96351.91
2023-03-08T14:03:47.072Z,96359.28
2023-03-08T14:06:24.842Z,96360.53
2023-03-08T14:08:54.750Z,96349.88
2023-03-08T14:11:29.158Z,96351.09
2023-03-08T14:13:58.491Z,96350.25
2023-03-08T14:16:42.578Z,96348.63
2023-03-08T14:19:22.315Z,96356.03
2023-03-08T14:21:52.698Z,96360.13
2023-03-08T14:24:23.855Z,96353.97
2023-03-08T14:27:17.806Z,96347.81
2023-03-08T14:29:51.945Z,96344.31
2023-03-08T14:32:36.234Z,96351.84
2023-03-08T14:35:16.647Z,96350.00
2023-03-08T14:37:46.958Z,96347.75
2023-03-08T14:40:13.885Z,96344.47
2023-03-08T14:43:16.198Z,96341.81
2023-03-08T14:46:06.754Z,96346.94
2023-03-08T14:48:38.786Z,96344.28
2023-03-08T14:51:18.439Z,96352.06
2023-03-08T14:54:09.065Z,96346.97
2023-03-08T14:56:41.335Z,96344.31
2023-03-08T14:59:25.185Z,96347.56
2023-03-08T15:02:15.009Z,96342.81
2023-03-08T15:04:43.224Z,96348.13
2023-03-08T15:07:23.683Z,96344.44
2023-03-08T15:09:52.061Z,96340.94
2023-03-08T15:12:22.235Z,96344.31
2023-03-08T15:14:55.894Z,96346.13
2023-03-08T15:17:24.409Z,96348.94
2023-03-08T15:19:57.686Z,96356.47
2023-03-08T15:25:22.940Z,96346.50
2023-03-08T15:27:51.534Z,96351.75
2023-03-08T15:30:37.493Z,96347.41
2023-03-08T15:33:05.806Z,96347.94
2023-03-08T15:35:35.661Z,96347.78
2023-03-08T15:38:03.133Z,96347.31
2023-03-08T15:43:22.380Z,96344.66
2023-03-08T15:45:54.112Z,96349.50
2023-03-08T15:48:21.213Z,96349.59
2023-03-08T15:50:49.655Z,96365.25
2023-03-08T15:53:29.620Z,96371.50
2023-03-08T15:56:02.127Z,96368.69
2023-03-08T15:58:29.695Z,96370.38
2023-03-08T16:01:00.612Z,96377.34
2023-03-08T16:03:30.984Z,96378.88
2023-03-08T16:06:02.720Z,96379.69
2023-03-08T16:08:30.301Z,96384.16
2023-03-08T16:11:04.024Z,96377.38
2023-03-08T16:13:33.883Z,96390.69
2023-03-08T16:16:03.107Z,96390.44
2023-03-08T16:18:30.986Z,96392.66
2023-03-08T16:20:58.572Z,96392.78
2023-03-08T16:23:29.801Z,96396.88
2023-03-08T16:28:59.573Z,96403.31
2023-03-08T16:31:29.148Z,96395.44
2023-03-08T16:33:57.433Z,96398.78
2023-03-08T16:36:29.437Z,96399.16
2023-03-08T16:39:30.529Z,96402.63
2023-03-08T16:42:16.581Z,96402.47
2023-03-08T16:44:58.676Z,96405.59
2023-03-08T16:48:13.455Z,96404.09
2023-03-08T16:50:51.506Z,96412.94
2023-03-08T16:53:37.698Z,96413.91
2023-03-08T16:56:25.474Z,96423.25
2023-03-08T16:59:25.553Z,96426.47
2023-03-08T17:05:20.245Z,96437.31
2023-03-08T17:08:05.537Z,96436.59
2023-03-08T17:10:44.798Z,96446.56
2023-03-08T17:13:53.990Z,96454.22
2023-03-08T17:16:43.389Z,96466.34
2023-03-08T17:19:58.940Z,96458.88
2023-03-08T17:23:08.635Z,96470.03
2023-03-08T17:25:43.506Z,96476.22
2023-03-08T17:31:28.761Z,96484.25
2023-03-08T17:34:03.401Z,96483.56
2023-03-08T17:36:38.311Z,96482.88
2023-03-08T17:39:11.375Z,96477.56
2023-03-08T17:44:37.959Z,96482.50
2023-03-08T17:53:20.699Z,96473.84
2023-03-08T17:56:00.562Z,96480.81
2023-03-08T17:58:46.464Z,96480.03
2023-03-08T18:01:21.422Z,96469.88
2023-03-08T18:04:18.895Z,96461.66
2023-03-08T18:06:49.178Z,96470.63
2023-03-08T18:09:37.643Z,96463.75
2023-03-08T18:13:50.796Z,96470.59
2023-03-08T18:15:04.829Z,96472.84
2023-03-08T18:17:40.306Z,96473.66
2023-03-08T18:20:10.450Z,96478.63
2023-03-08T18:22:42.360Z,96484.03
2023-03-08T18:25:10.505Z,96493.53
2023-03-08T18:27:44.356Z,96492.03
2023-03-08T18:30:13.494Z,96489.97
2023-03-08T18:32:48.330Z,96492.69
2023-03-08T18:35:40.087Z,96499.56
2023-03-08T18:38:19.714Z,96505.06
2023-03-08T18:40:48.004Z,96522.41
2023-03-08T18:43:31.073Z,96526.22
2023-03-08T18:50:04.329Z,96539.72
2023-03-08T18:55:38.246Z,96537.88
2023-03-08T18:58:20.989Z,96541.56
2023-03-08T19:04:35.632Z,96523.84
2023-03-08T19:07:14.424Z,96526.03
2023-03-08T19:09:51.309Z,96523.22
2023-03-08T19:12:25.278Z,96532.66
2023-03-08T19:15:09.653Z,96529.22
2023-03-08T19:17:46.071Z,96527.19
2023-03-08T19:20:20.794Z,96532.16
2023-03-08T19:23:24.245Z,96531.66
2023-03-08T19:26:12.573Z,96530.25
2023-03-08T19:29:32.922Z,96535.38
2023-03-08T19:36:03.922Z,96530.41
2023-03-08T19:39:11.170Z,96525.19
2023-03-08T19:42:15.912Z,96531.00
2023-03-08T19:44:54.664Z,96535.16
2023-03-08T19:50:22.445Z,96535.16
2023-03-08T19:52:56.247Z,96533.41
2023-03-08T19:56:26.194Z,96536.97
2023-03-08T19:59:00.489Z,96543.03
2023-03-08T20:05:42.172Z,96559.28
2023-03-08T20:15:35.096Z,96563.84
2023-03-08T20:18:14.957Z,96569.56
2023-03-08T20:20:45.394Z,96562.44
2023-03-08T20:26:28.158Z,96566.66
2023-03-08T20:32:57.934Z,96558.00
2023-03-08T20:35:58.527Z,96557.91
2023-03-08T20:39:13.935Z,96570.31
2023-03-08T20:42:03.130Z,96568.63
2023-03-08T20:44:44.551Z,96568.16
2023-03-08T20:47:58.920Z,96573.56
2023-03-08T20:50:30.456Z,96574.03
2023-03-08T21:12:53.171Z,96584.59
2023-03-08T21:15:34.882Z,96577.72
2023-03-08T21:18:07.325Z,96586.72
2023-03-08T21:20:51.187Z,96579.31
2023-03-08T21:26:41.176Z,96582.63
2023-03-08T21:29:15.750Z,96576.63
2023-03-08T21:32:01.906Z,96575.13
2023-03-08T21:34:45.511Z,96569.56
2023-03-08T21:37:27.865Z,96554.56
2023-03-08T21:39:55.001Z,96557.91
2023-03-08T21:42:23.142Z,96569.44
2023-03-08T21:44:51.152Z,96565.50
2023-03-08T21:50:54.995Z,96551.59
2023-03-08T21:53:25.942Z,96543.38
2023-03-08T21:56:27.708Z,96552.66
2023-03-08T22:00:12.968Z,96554.41
2023-03-08T22:02:55.082Z,96556.81
2023-03-08T22:05:47.400Z,96561.00
2023-03-08T22:08:19.131Z,96559.56
2023-03-08T22:11:00.033Z,96564.13
2023-03-08T22:16:17.783Z,96562.56
2023-03-08T22:16:53.200Z,96544.69
2023-03-08T22:25:21.888Z,96528.19
2023-03-08T22:33:23.308Z,96524.59
2023-03-08T22:35:04.813Z,96523.44
2023-03-08T22:36:03.700Z,96522.50
2023-03-08T22:39:02.476Z,96516.13
2023-03-08T22:41:35.808Z,96514.25
2023-03-08T22:44:50.880Z,96531.59
2023-03-08T22:51:10.312Z,96527.69
2023-03-08T22:54:02.558Z,96531.50
2023-03-08T22:57:23.642Z,96531.50
2023-03-08T23:00:54.660Z,96529.97
2023-03-08T23:03:11.089Z,96535.63
2023-03-08T23:05:37.968Z,96532.81
2023-03-08T23:09:13.425Z,96531.63
2023-03-08T23:11:29.182Z,96542.53
2023-03-08T23:14:29.698Z,96549.88
2023-03-08T23:17:01.986Z,96547.50
2023-03-08T23:19:42.177Z,96548.31
2023-03-08T23:22:39.867Z,96551.78
2023-03-08T23:25:10.355Z,96553.41
2023-03-08T23:27:37.374Z,96560.28
2023-03-08T23:30:06.954Z,96549.72
2023-03-08T23:32:34.677Z,96556.69
2023-03-08T23:35:04.688Z,96562.63
2023-03-08T23:37:36.334Z,96556.00
2023-03-08T23:42:53.120Z,96557.06
2023-03-08T23:45:30.079Z,96556.69
2023-03-08T23:47:57.139Z,96541.19
2023-03-08T23:50:23.979Z,96546.50
2023-03-08T23:52:50.916Z,96531.81
2023-03-08T23:55:17.867Z,96537.16
2023-03-08T23:57:44.993Z,96531.94
